Time;durP1;ratioP1;P1;durP2;ratioP2;P2;SDS_P1;SDS_P2;PMS_P1;PMS_P2;Temp;Humidity;BMP_temperature;BMP_pressure;BME280_temperature;BME280_humidity;BME280_pressure;Samples;Min_cycle;Max_cycle;Signal;HPM_P1;HPM_P2
2021/12/19 00:10:27;;;;;;;5.53;2.90;;;;;;;8.09;43.58;101858.06;144992;586;6004;-88
2021/12/19 00:12:55;;;;;;;3.85;2.12;;;;;;;8.05;42.79;101850.97;144992;569;6004;-90
2021/12/19 00:15:22;;;;;;;3.40;2.50;;;;;;;7.66;41.17;101852.09;144992;580;6004;-87
2021/12/19 00:17:49;;;;;;;5.80;3.70;;;;;;;7.74;41.53;101866.34;144992;586;6004;-89
2021/12/19 00:20:15;;;;;;;5.10;3.50;;;;;;;7.78;43.04;101858.88;144992;583;6004;-90
2021/12/19 00:22:42;;;;;;;4.18;3.08;;;;;;;8.17;43.35;101859.41;144992;608;6004;-89
2021/12/19 00:25:09;;;;;;;2.70;1.98;;;;;;;8.26;43.36;101853.00;144992;605;6004;-89
2021/12/19 00:27:35;;;;;;;4.07;2.62;;;;;;;8.21;42.99;101857.91;144992;615;6004;-86
2021/12/19 00:30:05;;;;;;;2.58;1.65;;;;;;;8.20;43.08;101866.47;144992;606;6005;-92
2021/12/19 00:32:32;;;;;;;3.65;2.30;;;;;;;8.44;42.35;101866.12;144992;650;6004;-89
2021/12/19 00:35:00;;;;;;;2.35;1.33;;;;;;;8.43;41.02;101861.69;144992;590;6004;-89
2021/12/19 00:37:26;;;;;;;4.40;2.25;;;;;;;8.78;43.19;101849.88;144992;637;6005;-89
2021/12/19 00:40:04;;;;;;;4.00;2.53;;;;;;;8.86;43.30;101851.19;144992;578;6004;-88
2021/12/19 00:42:51;;;;;;;1.58;0.95;;;;;;;8.60;42.40;101860.13;144992;584;6004;-91
2021/12/19 00:45:29;;;;;;;6.32;3.28;;;;;;;8.63;43.14;101863.75;144992;607;6004;-89
2021/12/19 00:47:57;;;;;;;1.15;0.80;;;;;;;8.46;41.16;101854.16;144992;600;6004;-88
2021/12/19 00:50:24;;;;;;;1.02;0.70;;;;;;;8.17;41.16;101855.94;144992;628;6004;-88
2021/12/19 00:52:51;;;;;;;2.72;1.10;;;;;;;8.42;42.72;101854.78;144992;593;6004;-89
2021/12/19 00:55:23;;;;;;;5.40;2.78;;;;;;;8.64;41.93;101867.25;144992;568;6004;-90
2021/12/19 00:57:50;;;;;;;1.75;0.98;;;;;;;8.83;43.00;101870.06;144992;572;6004;-89
2021/12/19 01:00:20;;;;;;;1.60;1.10;;;;;;;8.81;43.04;101863.91;144992;580;6004;-89
2021/12/19 01:02:50;;;;;;;1.48;1.00;;;;;;;8.79;42.76;101865.50;144992;605;6004;-89
2021/12/19 01:05:17;;;;;;;2.12;1.10;;;;;;;8.93;42.97;101863.69;144992;573;6004;-88
2021/12/19 01:07:44;;;;;;;4.50;2.00;;;;;;;9.05;42.77;101859.16;144992;592;6004;-89
2021/12/19 01:10:12;;;;;;;4.25;1.67;;;;;;;9.13;42.49;101853.50;144992;571;6004;-87
2021/12/19 01:12:38;;;;;;;0.80;0.55;;;;;;;8.51;39.31;101861.38;144992;576;6004;-87
2021/12/19 01:15:12;;;;;;;1.65;1.00;;;;;;;8.28;40.01;101867.78;144992;630;6004;-87
2021/12/19 01:17:39;;;;;;;1.48;0.70;;;;;;;8.17;41.10;101858.53;144992;569;6004;-91
2021/12/19 01:20:11;;;;;;;3.55;1.02;;;;;;;8.34;42.24;101862.09;144992;643;6004;-87
2021/12/19 01:22:38;;;;;;;1.48;0.60;;;;;;;8.01;40.75;101855.88;144992;589;6004;-89
2021/12/19 01:25:05;;;;;;;1.70;0.60;;;;;;;8.13;42.08;101865.22;144992;571;6004;-89
2021/12/19 01:27:32;;;;;;;2.08;0.73;;;;;;;8.10;41.97;101857.28;144992;635;6004;-89
2021/12/19 01:29:58;;;;;;;1.25;0.50;;;;;;;8.10;39.72;101859.00;144992;584;6004;-88
2021/12/19 01:32:25;;;;;;;0.65;0.50;;;;;;;7.93;39.58;101845.06;144992;590;6004;-87
2021/12/19 01:34:52;;;;;;;0.95;0.70;;;;;;;7.99;41.13;101842.84;144992;618;6004;-87
2021/12/19 01:37:18;;;;;;;1.52;0.93;;;;;;;8.05;39.90;101847.47;144992;673;6004;-89
2021/12/19 01:39:45;;;;;;;0.70;0.60;;;;;;;8.39;41.73;101849.41;144992;574;6004;-87
2021/12/19 01:42:12;;;;;;;2.33;0.90;;;;;;;8.23;40.95;101850.25;144992;567;6004;-88
2021/12/19 01:44:39;;;;;;;2.78;1.30;;;;;;;8.56;41.75;101852.97;144992;595;6005;-88
2021/12/19 01:47:06;;;;;;;1.98;1.17;;;;;;;8.58;41.70;101848.78;144992;618;6004;-88
2021/12/19 01:49:32;;;;;;;3.12;1.30;;;;;;;8.81;41.62;101852.62;144992;647;6004;-91
2021/12/19 01:51:59;;;;;;;1.73;1.00;;;;;;;8.86;41.75;101853.78;144992;594;6005;-88
2021/12/19 01:54:28;;;;;;;1.35;1.10;;;;;;;9.04;41.79;101851.31;144992;606;6004;-87
2021/12/19 01:56:54;;;;;;;2.28;1.62;;;;;;;9.14;41.89;101851.00;144992;592;6004;-89
2021/12/19 01:59:21;;;;;;;1.55;1.05;;;;;;;9.24;41.89;101848.09;144992;603;6005;-89
2021/12/19 02:01:54;;;;;;;4.07;1.83;;;;;;;9.23;42.34;101841.13;144992;618;6004;-89
2021/12/19 02:04:21;;;;;;;2.50;1.60;;;;;;;9.28;42.32;101849.12;144992;570;6004;-89
2021/12/19 02:06:48;;;;;;;4.40;2.72;;;;;;;9.12;42.97;101847.44;144992;602;6004;-90
2021/12/19 02:09:16;;;;;;;3.37;1.85;;;;;;;9.08;43.16;101851.56;144992;604;6004;-89
2021/12/19 02:11:42;;;;;;;3.35;1.75;;;;;;;8.91;43.55;101854.94;144992;658;6004;-89
2021/12/19 02:14:11;;;;;;;2.72;1.65;;;;;;;8.80;43.81;101845.69;144992;591;6004;-87
2021/12/19 02:16:40;;;;;;;6.20;2.83;;;;;;;8.90;44.19;101845.38;144992;583;6004;-88
2021/12/19 02:19:09;;;;;;;2.78;1.70;;;;;;;8.86;44.41;101843.41;144992;595;6004;-90
2021/12/19 02:21:36;;;;;;;2.60;1.25;;;;;;;9.05;44.13;101841.03;144992;582;6004;-90
2021/12/19 02:24:05;;;;;;;3.47;1.60;;;;;;;9.10;44.60;101837.78;144992;585;6004;-90
2021/12/19 02:26:32;;;;;;;4.68;1.70;;;;;;;8.95;44.81;101840.44;144992;603;6013;-88
2021/12/19 02:28:58;;;;;;;4.43;1.70;;;;;;;8.99;45.27;101834.66;144992;643;6004;-88
2021/12/19 02:31:28;;;;;;;3.28;1.40;;;;;;;8.49;46.18;101829.31;144992;585;6004;-89
2021/12/19 02:34:07;;;;;;;2.25;1.30;;;;;;;8.28;46.59;101830.69;144991;593;6000;-89
2021/12/19 02:50:49;;;;;;;2.35;1.98;;;;;;;8.32;46.89;101833.53;144992;583;6004;-89
2021/12/19 02:53:19;;;;;;;4.28;1.62;;;;;;;8.48;46.75;101840.50;144992;578;6004;-89
2021/12/19 02:55:46;;;;;;;2.92;1.92;;;;;;;8.59;46.84;101832.44;144992;594;6004;-90
2021/12/19 02:58:12;;;;;;;3.20;1.95;;;;;;;8.59;46.16;101832.44;144992;596;6004;-87
2021/12/19 03:00:38;;;;;;;4.47;1.98;;;;;;;8.56;46.59;101830.59;144992;598;6004;-88
2021/12/19 03:03:05;;;;;;;2.72;1.95;;;;;;;8.43;47.15;101835.84;144992;632;6004;-87
2021/12/19 03:05:33;;;;;;;6.55;3.30;;;;;;;8.54;46.72;101832.19;144992;635;6004;-89
2021/12/19 03:08:02;;;;;;;2.35;1.50;;;;;;;8.30;47.13;101827.41;144992;579;6004;-90
2021/12/19 03:18:43;;;;;;;1.80;1.30;;;;;;;7.88;47.64;101813.78;144993;561;6004;-90
2021/12/19 03:21:13;;;;;;;2.28;1.50;;;;;;;8.17;47.61;101825.78;144993;587;6002;-88
2021/12/19 03:23:40;;;;;;;3.42;2.10;;;;;;;8.44;47.15;101819.53;144993;638;6002;-88
2021/12/19 03:26:07;;;;;;;4.85;2.45;;;;;;;8.62;46.89;101828.34;144993;641;6002;-89
2021/12/19 03:28:34;;;;;;;3.85;2.20;;;;;;;8.55;46.65;101831.38;144993;599;6002;-88
2021/12/19 03:31:02;;;;;;;3.80;2.35;;;;;;;8.48;47.27;101830.16;144993;663;6008;-87
2021/12/19 03:33:29;;;;;;;2.15;1.40;;;;;;;8.36;46.87;101835.47;144993;698;6004;-89
2021/12/19 03:35:56;;;;;;;4.03;1.62;;;;;;;8.55;47.01;101826.22;144993;671;6002;-89
2021/12/19 03:38:24;;;;;;;3.78;1.20;;;;;;;8.40;46.55;101830.47;144993;649;6002;-89
2021/12/19 03:40:55;;;;;;;2.83;1.60;;;;;;;8.53;46.87;101822.66;144993;586;6002;-88
2021/12/19 03:43:24;;;;;;;3.62;1.77;;;;;;;8.76;46.30;101826.50;144993;565;6002;-89
2021/12/19 03:45:50;;;;;;;1.58;0.98;;;;;;;8.43;46.26;101831.59;144992;653;6002;-89
2021/12/19 03:48:18;;;;;;;3.15;1.77;;;;;;;8.73;46.75;101833.22;144992;579;6002;-88
2021/12/19 03:50:48;;;;;;;2.80;1.70;;;;;;;8.66;46.70;101831.97;144992;642;6002;-89
2021/12/19 03:53:17;;;;;;;2.60;1.73;;;;;;;8.87;46.23;101827.09;144992;593;6002;-88
2021/12/19 03:55:44;;;;;;;2.03;1.00;;;;;;;8.58;44.44;101828.09;144992;666;6002;-88
2021/12/19 03:58:11;;;;;;;1.45;1.00;;;;;;;8.61;44.58;101830.84;144993;592;6002;-88
2021/12/19 04:00:41;;;;;;;2.08;1.30;;;;;;;8.85;45.77;101826.13;144993;626;6002;-88
2021/12/19 04:03:09;;;;;;;2.95;1.50;;;;;;;8.90;45.57;101825.53;144993;575;6002;-88
2021/12/19 04:05:42;;;;;;;1.98;1.10;;;;;;;8.80;45.25;101835.34;144993;591;6002;-87
2021/12/19 04:08:08;;;;;;;4.00;2.35;;;;;;;9.00;45.47;101837.28;144993;564;6002;-89
2021/12/19 04:10:35;;;;;;;2.05;1.20;;;;;;;9.08;45.19;101837.69;144992;587;6002;-88
2021/12/19 04:13:02;;;;;;;1.73;0.93;;;;;;;8.90;45.03;101827.25;144993;619;6002;-90
2021/12/19 04:15:28;;;;;;;2.30;1.40;;;;;;;9.04;45.18;101828.88;144993;644;6002;-88
2021/12/19 04:17:55;;;;;;;3.80;2.12;;;;;;;9.07;45.37;101830.75;144992;566;6002;-89
2021/12/19 04:20:21;;;;;;;2.80;1.60;;;;;;;9.12;45.03;101826.72;144993;685;6002;-88
2021/12/19 04:22:50;;;;;;;2.95;1.87;;;;;;;9.16;44.80;101819.97;144993;715;6002;-87
2021/12/19 04:25:17;;;;;;;3.35;2.40;;;;;;;9.22;44.98;101828.09;144993;579;6002;-87
2021/12/19 04:27:45;;;;;;;2.62;1.90;;;;;;;9.19;44.78;101828.81;144993;648;6002;-88
2021/12/19 04:30:21;;;;;;;2.90;1.70;;;;;;;9.23;44.67;101822.09;144993;583;6002;-89
2021/12/19 04:32:57;;;;;;;2.72;1.60;;;;;;;9.10;45.10;101817.06;144993;585;6002;-87
2021/12/19 04:35:30;;;;;;;2.30;1.33;;;;;;;8.77;44.09;101817.94;144993;566;6002;-87
2021/12/19 04:38:38;;;;;;;2.45;1.45;;;;;;;8.61;44.32;101830.84;144993;605;6002;-87
2021/12/19 04:52:18;;;;;;;2.87;1.70;;;;;;;8.72;45.92;101816.78;144993;578;6004;-87
2021/12/19 04:54:52;;;;;;;3.20;2.20;;;;;;;8.67;46.06;101813.03;144994;615;5004;-87
2021/12/19 05:00:16;;;;;;;2.75;1.75;;;;;;;8.52;45.64;101819.16;144994;589;5004;-88
2021/12/19 05:02:51;;;;;;;2.33;1.62;;;;;;;8.42;46.29;101819.41;144994;561;5004;-89
2021/12/19 05:16:18;;;;;;;2.87;1.70;;;;;;;8.58;46.17;101823.78;144994;600;5004;-89
2021/12/19 05:18:46;;;;;;;4.20;2.10;;;;;;;8.47;46.31;101828.34;144994;639;5004;-89
2021/12/19 05:21:18;;;;;;;3.17;2.10;;;;;;;8.42;46.78;101824.59;144994;575;5004;-88
2021/12/19 05:26:31;;;;;;;2.20;1.67;;;;;;;8.49;46.70;101828.44;144994;597;5002;-89
2021/12/19 05:28:57;;;;;;;2.70;2.00;;;;;;;8.48;46.70;101829.28;144994;593;5002;-89
2021/12/19 05:31:24;;;;;;;3.25;1.67;;;;;;;8.31;46.68;101830.88;144994;566;5002;-88
2021/12/19 05:33:50;;;;;;;3.10;1.70;;;;;;;8.28;46.80;101818.62;144994;591;5002;-89
2021/12/19 05:47:38;;;;;;;3.10;1.73;;;;;;;7.62;48.35;101804.50;144994;593;5004;-86
2021/12/19 05:50:06;;;;;;;5.12;1.80;;;;;;;7.67;48.44;101808.25;144993;591;6006;-86
2021/12/19 05:52:32;;;;;;;2.47;1.40;;;;;;;7.90;48.75;101806.97;144994;583;5002;-88
2021/12/19 05:54:59;;;;;;;2.10;1.90;;;;;;;7.97;47.99;101811.72;144994;573;5002;-88
2021/12/19 05:57:25;;;;;;;2.10;1.60;;;;;;;7.62;49.04;101809.69;144994;600;5002;-89
2021/12/19 05:59:52;;;;;;;3.90;2.78;;;;;;;7.70;48.71;101823.03;144994;575;5002;-88
2021/12/19 06:02:19;;;;;;;3.53;1.95;;;;;;;7.47;49.49;101825.12;144994;565;5002;-88
2021/12/19 06:04:45;;;;;;;3.95;2.15;;;;;;;7.89;48.51;101825.00;144994;569;5002;-88
2021/12/19 06:07:13;;;;;;;3.45;2.50;;;;;;;7.88;48.81;101821.53;144994;639;5002;-87
2021/12/19 06:09:41;;;;;;;4.10;2.35;;;;;;;7.90;48.81;101822.50;144994;569;5002;-87
2021/12/19 06:12:08;;;;;;;4.87;2.08;;;;;;;7.92;48.50;101825.19;144994;602;5002;-87
2021/12/19 06:14:36;;;;;;;3.47;2.00;;;;;;;7.98;48.32;101821.25;144994;590;5002;-87
2021/12/19 06:17:04;;;;;;;3.58;2.40;;;;;;;8.05;48.68;101829.34;144994;613;5002;-88
2021/12/19 06:19:32;;;;;;;3.15;2.58;;;;;;;8.34;47.97;101826.75;144994;733;5002;-87
2021/12/19 06:22:00;;;;;;;2.33;2.00;;;;;;;7.73;49.60;101830.97;144994;612;5002;-88
2021/12/19 06:24:26;;;;;;;3.30;1.83;;;;;;;8.12;48.91;101826.34;144994;602;5002;-87
2021/12/19 06:26:53;;;;;;;3.10;1.80;;;;;;;7.87;49.51;101826.59;144994;700;5002;-88
2021/12/19 06:29:22;;;;;;;3.03;2.10;;;;;;;7.82;49.45;101818.56;144994;564;5002;-88
2021/12/19 06:31:48;;;;;;;6.55;2.28;;;;;;;7.88;49.32;101821.53;144994;613;5002;-89
2021/12/19 06:34:15;;;;;;;2.50;2.03;;;;;;;7.98;49.15;101826.41;144994;647;5003;-87
2021/12/19 06:36:41;;;;;;;2.85;2.08;;;;;;;7.83;48.97;101825.53;144994;616;5002;-88
2021/12/19 06:39:08;;;;;;;1.98;1.75;;;;;;;7.86;49.36;101827.41;144994;637;5002;-89
2021/12/19 06:41:36;;;;;;;3.97;2.03;;;;;;;8.01;49.04;101822.25;144994;576;5002;-87
2021/12/19 06:44:04;;;;;;;3.53;2.00;;;;;;;7.57;49.84;101837.81;144994;597;5002;-90
2021/12/19 06:46:31;;;;;;;2.30;1.70;;;;;;;7.54;50.30;101847.97;144994;585;5002;-88
2021/12/19 06:48:58;;;;;;;4.30;2.03;;;;;;;7.72;49.91;101843.00;144994;574;5002;-89
2021/12/19 06:51:24;;;;;;;2.83;1.90;;;;;;;7.77;49.92;101828.66;144994;585;5002;-85
2021/12/19 06:53:51;;;;;;;4.12;2.05;;;;;;;7.81;50.40;101829.75;144994;656;5002;-89
2021/12/19 06:56:18;;;;;;;3.53;2.05;;;;;;;8.07;49.59;101839.00;144994;568;5002;-92
2021/12/19 06:58:44;;;;;;;4.47;2.00;;;;;;;7.78;50.40;101837.31;144994;589;5002;-93
2021/12/19 07:01:10;;;;;;;4.80;2.50;;;;;;;7.86;49.92;101835.16;144994;565;5002;-91
2021/12/19 07:03:37;;;;;;;3.22;2.30;;;;;;;8.01;50.01;101841.22;144994;627;5002;-90
2021/12/19 07:06:04;;;;;;;4.53;2.60;;;;;;;7.92;50.09;101843.28;144994;632;5002;-83
2021/12/19 07:08:32;;;;;;;2.92;2.00;;;;;;;8.07;49.95;101848.47;144994;596;5002;-89
2021/12/19 07:10:58;;;;;;;2.62;2.00;;;;;;;7.93;49.63;101847.66;144993;569;5002;-89
2021/12/19 07:13:26;;;;;;;2.30;1.85;;;;;;;8.11;49.58;101845.22;144994;644;5002;-89
2021/12/19 07:15:54;;;;;;;3.20;2.00;;;;;;;7.78;48.80;101842.50;144994;587;5002;-88
2021/12/19 07:18:21;;;;;;;4.18;3.08;;;;;;;8.01;49.01;101841.22;144994;593;5002;-91
2021/12/19 07:20:58;;;;;;;2.70;2.10;;;;;;;8.10;49.24;101841.78;144994;644;5002;-91
2021/12/19 07:25:53;;;;;;;2.17;1.60;;;;;;;7.98;48.06;101831.59;144994;589;5002;-90
2021/12/19 07:28:20;;;;;;;2.22;2.03;;;;;;;8.17;49.09;101851.66;144994;580;5002;-91
2021/12/19 07:30:48;;;;;;;3.60;2.20;;;;;;;8.15;48.28;101850.69;144994;564;5002;-93
2021/12/19 07:33:18;;;;;;;3.12;2.30;;;;;;;7.88;48.05;101844.78;144994;598;5002;-91
2021/12/19 07:35:48;;;;;;;4.32;2.95;;;;;;;8.21;48.69;101852.75;144994;609;5002;-90
2021/12/19 07:38:35;;;;;;;4.12;2.40;;;;;;;8.20;47.58;101855.25;144993;641;5002;-89
2021/12/19 07:41:02;;;;;;;3.33;2.53;;;;;;;8.42;47.08;101854.78;144993;586;5002;-90
2021/12/19 07:43:30;;;;;;;3.58;2.70;;;;;;;8.50;47.85;101853.53;144994;583;5002;-90
2021/12/19 07:45:56;;;;;;;4.20;2.50;;;;;;;8.77;46.27;101851.59;144994;569;5002;-91
2021/12/19 07:51:29;;;;;;;2.80;2.15;;;;;;;8.56;45.37;101847.78;144994;589;5002;-92
2021/12/19 07:53:55;;;;;;;6.32;3.28;;;;;;;8.49;45.44;101856.91;144994;582;5002;-91
2021/12/19 07:56:22;;;;;;;5.03;2.97;;;;;;;8.65;45.43;101850.91;144994;596;5002;-91
2021/12/19 07:58:50;;;;;;;4.12;2.45;;;;;;;8.61;46.71;101848.97;144994;595;5002;-92
2021/12/19 08:03:46;;;;;;;3.78;2.53;;;;;;;8.27;44.95;101873.78;144994;606;5002;-90
2021/12/19 08:06:13;;;;;;;3.62;2.95;;;;;;;8.58;45.86;101877.25;144994;585;5002;-91
2021/12/19 08:08:47;;;;;;;6.60;2.20;;;;;;;8.31;43.32;101882.62;144994;584;5002;-91
2021/12/19 08:18:54;;;;;;;4.12;2.35;;;;;;;7.82;44.16;101885.78;144994;572;5002;-90
2021/12/19 08:21:32;;;;;;;3.45;2.42;;;;;;;8.01;44.43;101895.53;144994;565;5002;-88
2021/12/19 08:24:10;;;;;;;4.62;2.70;;;;;;;8.38;44.26;101889.03;144994;636;5002;-93
2021/12/19 08:29:10;;;;;;;2.28;1.98;;;;;;;8.24;41.18;101885.62;144994;589;5002;-93
2021/12/19 08:31:39;;;;;;;2.85;2.30;;;;;;;8.20;41.26;101881.97;144994;600;5002;-90
2021/12/19 08:34:31;;;;;;;2.47;2.20;;;;;;;8.67;43.47;101888.09;144994;584;5002;-91
2021/12/19 08:37:09;;;;;;;3.45;2.53;;;;;;;9.03;42.82;101883.19;144994;578;5004;-90
2021/12/19 08:39:38;;;;;;;5.47;3.08;;;;;;;9.28;42.44;101885.41;144994;602;5004;-92
2021/12/19 08:42:09;;;;;;;4.75;2.90;;;;;;;8.84;40.84;101876.12;144994;675;5004;-90
2021/12/19 08:47:12;;;;;;;4.40;3.30;;;;;;;9.16;42.34;101882.16;144994;597;5002;-89
2021/12/19 08:49:40;;;;;;;4.18;2.80;;;;;;;8.91;42.59;101867.91;144994;589;5002;-91
2021/12/19 08:57:15;;;;;;;3.10;2.50;;;;;;;8.58;41.31;101857.44;144994;565;5002;-90
2021/12/19 09:02:12;;;;;;;4.25;2.90;;;;;;;8.23;42.50;101864.06;144994;634;5002;-90
2021/12/19 09:05:10;;;;;;;4.70;2.60;;;;;;;8.27;42.06;101854.75;144994;573;5002;-83
2021/12/19 09:36:36;;;;;;;4.37;3.45;;;;;;;8.96;43.22;101827.59;144992;591;6002;-87
2021/12/19 09:39:07;;;;;;;4.32;3.20;;;;;;;9.18;43.06;101818.34;144992;570;6002;-83
2021/12/19 09:41:43;;;;;;;7.43;5.32;;;;;;;9.38;42.25;101815.12;144992;632;6002;-86
2021/12/19 09:44:11;;;;;;;5.47;3.62;;;;;;;9.08;42.14;101806.63;144992;589;6002;-88
2021/12/19 09:46:41;;;;;;;5.75;3.87;;;;;;;9.22;42.26;101808.25;144992;571;6002;-83
2021/12/19 09:49:11;;;;;;;6.22;3.62;;;;;;;8.95;42.33;101802.47;144992;600;6002;-87
2021/12/19 09:51:38;;;;;;;4.40;3.55;;;;;;;9.02;42.98;101801.09;144992;603;6002;-89
2021/12/19 09:54:10;;;;;;;4.47;3.47;;;;;;;8.82;42.49;101795.75;144992;608;6002;-86
2021/12/19 09:56:38;;;;;;;6.50;3.40;;;;;;;8.74;42.76;101791.00;144992;701;6002;-85
2021/12/19 09:59:11;;;;;;;4.43;3.50;;;;;;;8.87;43.59;101783.94;144992;597;6002;-83
2021/12/19 10:01:38;;;;;;;5.80;3.50;;;;;;;8.90;44.02;101776.34;144992;614;6002;-85
2021/12/19 10:04:25;;;;;;;4.70;3.20;;;;;;;9.30;43.51;101780.16;144992;619;6002;-84
2021/12/19 10:07:23;;;;;;;5.60;3.28;;;;;;;9.85;41.89;101774.28;144992;582;6004;-83
2021/12/19 10:10:26;;;;;;;3.47;2.92;;;;;;;10.42;42.33;101764.09;144992;565;6002;-83
2021/12/19 10:12:58;;;;;;;6.32;2.90;;;;;;;10.79;40.20;101754.50;144992;593;6004;-82
2021/12/19 10:15:39;;;;;;;7.25;3.10;;;;;;;11.26;39.97;101742.72;144992;561;6004;-82
2021/12/19 10:18:09;;;;;;;4.37;2.87;;;;;;;11.47;39.32;101737.56;144992;593;6004;-82
2021/12/19 10:20:48;;;;;;;3.12;2.75;;;;;;;11.67;37.20;101729.72;144992;642;6004;-84
2021/12/19 10:23:26;;;;;;;3.22;2.60;;;;;;;12.03;39.94;101727.75;144992;573;6004;-83
2021/12/19 10:26:12;;;;;;;4.32;2.65;;;;;;;12.30;40.02;101727.94;144992;575;6004;-84
2021/12/19 10:28:54;;;;;;;3.10;2.70;;;;;;;12.48;39.78;101717.34;144992;592;6004;-84
2021/12/19 10:31:28;;;;;;;3.80;2.28;;;;;;;12.63;39.71;101716.13;144992;565;6004;-83
2021/12/19 10:33:55;;;;;;;2.65;2.08;;;;;;;12.85;39.72;101708.28;144992;594;6004;-84
2021/12/19 10:36:22;;;;;;;3.47;1.95;;;;;;;12.83;35.73;101696.91;144992;633;6004;-87
2021/12/19 10:38:51;;;;;;;2.05;1.83;;;;;;;12.35;34.04;101699.47;144992;582;6004;-85
2021/12/19 10:41:30;;;;;;;1.50;1.40;;;;;;;12.22;38.04;101690.31;144992;569;6004;-84
2021/12/19 10:44:03;;;;;;;1.85;1.65;;;;;;;12.66;38.36;101695.41;144992;625;6004;-85
2021/12/19 10:46:34;;;;;;;2.58;2.17;;;;;;;12.87;36.55;101687.50;144992;686;6004;-84
2021/12/19 10:49:02;;;;;;;2.28;1.90;;;;;;;13.11;37.57;101684.87;144992;572;6004;-83
2021/12/19 10:51:32;;;;;;;2.08;1.58;;;;;;;13.04;37.02;101685.47;144992;567;6004;-85
2021/12/19 10:54:01;;;;;;;1.90;1.70;;;;;;;12.79;35.92;101678.50;144992;578;6004;-86
2021/12/19 10:56:36;;;;;;;2.30;1.80;;;;;;;12.71;36.94;101667.84;144992;593;6004;-84
2021/12/19 10:59:06;;;;;;;2.50;1.92;;;;;;;13.07;37.90;101669.94;144992;593;6004;-85
2021/12/19 11:01:44;;;;;;;4.12;1.80;;;;;;;12.95;37.01;101657.37;144992;638;6004;-85
2021/12/19 11:04:17;;;;;;;2.17;1.75;;;;;;;13.03;34.46;101649.84;144992;575;6004;-82
2021/12/19 11:07:09;;;;;;;2.80;2.00;;;;;;;12.99;33.81;101648.81;144992;561;6004;-84
2021/12/19 11:09:39;;;;;;;2.03;1.65;;;;;;;13.01;36.79;101649.78;144992;579;6002;-86
2021/12/19 11:12:11;;;;;;;3.53;1.80;;;;;;;12.87;32.93;101643.22;144992;606;6002;-85
2021/12/19 11:14:45;;;;;;;2.47;1.60;;;;;;;12.48;35.49;101643.53;144992;571;6002;-87
2021/12/19 11:17:16;;;;;;;1.87;1.63;;;;;;;12.13;34.01;101640.50;144992;571;6002;-83
2021/12/19 11:19:44;;;;;;;2.33;1.73;;;;;;;12.10;32.63;101633.44;144992;603;6002;-84
2021/12/19 11:22:12;;;;;;;1.95;1.75;;;;;;;12.34;33.16;101630.91;144992;571;6002;-85
2021/12/19 11:24:40;;;;;;;1.92;1.70;;;;;;;12.52;35.18;101620.28;144992;585;6002;-84
2021/12/19 11:27:09;;;;;;;2.53;2.15;;;;;;;12.66;33.08;101617.25;144992;593;6002;-86
2021/12/19 11:29:36;;;;;;;2.40;1.95;;;;;;;12.29;34.72;101619.41;144992;687;6002;-83
2021/12/19 11:32:06;;;;;;;1.90;1.40;;;;;;;12.24;33.68;101607.94;144992;580;6002;-84
2021/12/19 11:35:09;;;;;;;2.33;1.67;;;;;;;12.54;32.17;101607.31;144992;592;6002;-85
2021/12/19 11:37:49;;;;;;;3.35;2.60;;;;;;;12.82;34.75;101609.16;144992;589;6004;-84
2021/12/19 11:40:19;;;;;;;3.83;2.20;;;;;;;12.64;33.05;101604.19;144992;611;6005;-84
2021/12/19 11:42:46;;;;;;;2.53;2.00;;;;;;;12.87;34.96;101601.50;144992;581;6004;-85
2021/12/19 11:45:32;;;;;;;2.28;1.80;;;;;;;12.74;34.30;101609.72;144992;588;6004;-84
2021/12/19 11:48:23;;;;;;;2.42;1.75;;;;;;;12.99;35.21;101601.91;144992;581;6004;-84
2021/12/19 11:51:01;;;;;;;3.00;1.92;;;;;;;12.92;31.84;101594.72;144992;584;6004;-83
2021/12/19 11:53:31;;;;;;;3.50;2.60;;;;;;;12.74;34.93;101583.66;144992;709;6004;-84
2021/12/19 11:56:10;;;;;;;5.53;4.20;;;;;;;12.50;34.31;101579.37;144992;632;6004;-85
2021/12/19 11:58:49;;;;;;;5.05;3.00;;;;;;;12.75;35.41;101581.12;144992;612;6004;-84
2021/12/19 12:01:24;;;;;;;3.83;2.00;;;;;;;12.16;31.20;101567.75;144992;596;6004;-84
2021/12/19 12:04:21;;;;;;;2.97;2.00;;;;;;;12.55;34.88;101557.00;144992;573;6004;-83
2021/12/19 12:06:58;;;;;;;3.72;2.17;;;;;;;12.62;34.24;101558.97;144992;643;6002;-83
2021/12/19 12:09:40;;;;;;;2.60;1.80;;;;;;;11.91;33.07;101553.75;144992;583;6002;-84
2021/12/19 12:12:16;;;;;;;3.80;2.90;;;;;;;12.47;34.35;101555.81;144992;590;6002;-85
2021/12/19 12:14:56;;;;;;;3.78;3.20;;;;;;;12.81;34.21;101550.06;144992;629;6002;-84
2021/12/19 12:17:35;;;;;;;3.42;2.50;;;;;;;12.82;33.15;101553.53;144992;569;6002;-86
2021/12/19 12:20:13;;;;;;;3.03;2.10;;;;;;;13.00;34.28;101551.56;144992;585;6002;-85
2021/12/19 12:22:51;;;;;;;3.60;2.10;;;;;;;12.75;32.03;101546.38;144992;565;6002;-84
2021/12/19 12:25:20;;;;;;;3.45;2.40;;;;;;;12.42;32.29;101555.66;144992;627;6002;-83
2021/12/19 12:27:55;;;;;;;4.15;2.45;;;;;;;12.28;33.35;101556.88;144992;591;6002;-87
2021/12/19 12:30:28;;;;;;;4.00;2.00;;;;;;;12.75;34.38;101551.59;144992;585;6002;-85
2021/12/19 12:32:56;;;;;;;1.85;1.65;;;;;;;12.87;34.31;101554.63;144991;609;6002;-84
2021/12/19 12:35:25;;;;;;;1.85;1.65;;;;;;;12.91;33.94;101553.84;144992;575;6002;-85
2021/12/19 12:37:54;;;;;;;3.35;2.40;;;;;;;12.87;34.10;101544.19;144992;587;6002;-83
2021/12/19 12:40:31;;;;;;;2.70;2.00;;;;;;;12.64;33.96;101544.25;144992;572;6002;-83
2021/12/19 12:43:23;;;;;;;2.90;2.42;;;;;;;12.62;34.30;101537.25;144992;579;6002;-84
2021/12/19 12:45:56;;;;;;;3.65;2.75;;;;;;;12.28;34.28;101536.97;144992;576;6004;-84
2021/12/19 12:49:04;;;;;;;3.70;3.03;;;;;;;12.37;34.50;101536.38;144992;571;6004;-83
2021/12/19 12:51:41;;;;;;;2.47;2.28;;;;;;;12.38;34.39;101526.88;144992;609;6002;-86
2021/12/19 12:54:11;;;;;;;3.28;2.92;;;;;;;12.59;34.60;101525.00;144992;628;6002;-86
2021/12/19 12:56:46;;;;;;;3.67;3.10;;;;;;;12.36;34.65;101528.50;144992;585;6002;-81
2021/12/19 12:59:16;;;;;;;4.18;3.15;;;;;;;12.20;34.95;101530.59;144992;569;6002;-83
2021/12/19 13:01:49;;;;;;;4.28;3.20;;;;;;;12.41;34.78;101514.84;144992;569;6002;-85
2021/12/19 13:04:26;;;;;;;3.65;3.00;;;;;;;12.59;34.64;101517.19;144992;584;6002;-82
2021/12/19 13:06:59;;;;;;;8.52;5.95;;;;;;;12.12;34.48;101516.38;144992;569;6002;-80
2021/12/19 13:09:46;;;;;;;9.07;6.75;;;;;;;12.14;33.94;101502.59;144992;597;6002;-80
2021/12/19 13:12:46;;;;;;;7.00;5.20;;;;;;;12.20;35.08;101514.06;144991;566;6002;-83
2021/12/19 13:15:15;;;;;;;4.90;3.60;;;;;;;11.90;34.38;101502.56;144992;571;6004;-80
2021/12/19 13:17:48;;;;;;;16.60;12.37;;;;;;;12.00;35.38;101505.56;144992;581;6004;-80
2021/12/19 13:20:19;;;;;;;56.13;40.45;;;;;;;11.64;35.53;101500.72;144992;592;6004;-81
2021/12/19 13:22:53;;;;;;;13.43;9.93;;;;;;;11.55;35.72;101499.53;144992;574;6004;-79
2021/12/19 13:25:49;;;;;;;5.55;4.35;;;;;;;11.72;35.54;101494.09;144992;574;6004;-81
2021/12/19 13:28:20;;;;;;;;;;;;;;;11.60;35.70;101489.31;144997;912;6004;-82
2021/12/19 13:30:47;;;;;;;5.50;4.12;;;;;;;11.71;35.87;101492.34;144997;596;6002;-79
2021/12/19 13:33:16;;;;;;;6.45;4.72;;;;;;;11.60;35.27;101487.59;144992;575;6002;-83
2021/12/19 13:35:56;;;;;;;5.47;3.75;;;;;;;11.31;34.79;101488.19;144992;563;6002;-80
2021/12/19 13:38:27;;;;;;;7.07;4.90;;;;;;;10.99;34.58;101486.09;144992;577;6002;-81
2021/12/19 13:41:06;;;;;;;10.00;8.18;;;;;;;11.12;36.09;101482.28;144992;575;6002;-80
2021/12/19 13:43:35;;;;;;;3.92;3.35;;;;;;;11.18;35.92;101472.12;144992;569;6002;-82
2021/12/19 13:46:08;;;;;;;5.57;3.03;;;;;;;10.97;35.22;101473.87;144991;591;6002;-81
2021/12/19 13:48:40;;;;;;;5.15;4.22;;;;;;;11.05;35.46;101469.84;144992;579;6002;-80
2021/12/19 13:51:35;;;;;;;6.43;4.37;;;;;;;11.05;36.43;101475.06;144992;593;6002;-80
2021/12/19 13:54:03;;;;;;;4.87;3.45;;;;;;;10.48;35.50;101471.03;144992;602;6004;-79
2021/12/19 13:56:35;;;;;;;3.47;3.03;;;;;;;10.65;36.15;101470.84;144992;588;6004;-80
2021/12/19 13:59:06;;;;;;;6.90;5.05;;;;;;;10.61;35.62;101463.72;144992;592;6004;-80
2021/12/19 14:01:40;;;;;;;4.87;4.22;;;;;;;10.81;36.73;101462.84;144992;658;6004;-81
2021/12/19 14:04:34;;;;;;;5.53;3.20;;;;;;;10.45;36.35;101457.00;144992;646;6004;-79
2021/12/19 14:07:05;;;;;;;6.50;4.10;;;;;;;10.53;36.94;101459.12;144992;669;6002;-80